createdAt,value
2018-05-10T00:00:42.831Z,24.27
2018-05-10T00:03:10.322Z,24.10
2018-05-10T00:05:37.790Z,25.13
2018-05-10T00:08:05.284Z,25.47
2018-05-10T00:10:32.769Z,26.67
2018-05-10T00:13:00.270Z,29.80
2018-05-10T00:15:27.817Z,29.27
2018-05-10T00:17:55.304Z,31.77
2018-05-10T00:20:22.773Z,32.07
2018-05-10T00:22:50.260Z,31.33
2018-05-10T00:25:17.738Z,32.50
2018-05-10T00:27:45.225Z,32.93
2018-05-10T00:30:12.703Z,31.43
2018-05-10T00:32:40.205Z,32.67
2018-05-10T00:35:07.684Z,32.40
2018-05-10T00:37:35.173Z,32.30
2018-05-10T00:40:02.655Z,30.97
2018-05-10T00:42:30.142Z,31.43
2018-05-10T00:44:57.616Z,31.57
2018-05-10T00:47:25.111Z,30.13
2018-05-10T00:49:52.581Z,32.10
2018-05-10T00:52:20.071Z,32.53
2018-05-10T00:54:54.362Z,30.33
2018-05-10T00:57:21.853Z,30.63
2018-05-10T00:59:49.322Z,28.83
2018-05-10T01:02:16.822Z,28.97
2018-05-10T01:04:44.303Z,30.57
2018-05-10T01:07:11.797Z,31.23
2018-05-10T01:09:39.262Z,30.80
2018-05-10T01:12:06.749Z,31.40
2018-05-10T01:14:34.212Z,31.40
2018-05-10T01:17:01.718Z,32.07
2018-05-10T01:19:29.185Z,31.07
2018-05-10T01:21:56.655Z,32.80
2018-05-10T01:24:24.152Z,29.70
2018-05-10T01:26:51.622Z,32.07
2018-05-10T01:29:19.119Z,32.33
2018-05-10T01:31:46.587Z,33.20
2018-05-10T01:34:14.073Z,33.67
2018-05-10T01:36:41.551Z,31.37
2018-05-10T01:39:09.055Z,33.27
2018-05-10T01:41:36.530Z,32.03
2018-05-10T01:44:04.019Z,32.13
2018-05-10T01:46:31.497Z,33.73
2018-05-10T01:48:58.993Z,33.23
2018-05-10T01:51:26.465Z,32.30
2018-05-10T01:53:53.950Z,32.03
2018-05-10T01:56:21.418Z,32.90
2018-05-10T01:58:48.902Z,34.13
2018-05-10T02:01:16.409Z,33.47
2018-05-10T02:03:43.907Z,34.37
2018-05-10T02:06:11.374Z,33.53
2018-05-10T02:08:38.857Z,35.53
2018-05-10T02:11:06.320Z,36.23
2018-05-10T02:13:33.806Z,36.07
2018-05-10T02:16:01.274Z,34.73
2018-05-10T02:18:28.777Z,35.57
2018-05-10T02:20:56.252Z,36.73
2018-05-10T02:23:23.749Z,36.63
2018-05-10T02:25:51.218Z,38.73
2018-05-10T02:28:18.706Z,35.50
2018-05-10T02:30:46.183Z,36.37
2018-05-10T02:33:13.678Z,35.93
2018-05-10T02:35:41.155Z,35.90
2018-05-10T02:38:08.637Z,35.10
2018-05-10T02:40:36.154Z,36.10
2018-05-10T02:43:03.654Z,35.73
2018-05-10T02:45:31.144Z,36.23
2018-05-10T02:47:58.610Z,35.97
2018-05-10T02:50:26.111Z,31.03
2018-05-10T02:52:53.591Z,31.63
2018-05-10T02:55:21.081Z,29.63
2018-05-10T02:57:48.556Z,26.17
2018-05-10T03:00:16.043Z,26.67
2018-05-10T03:02:43.510Z,26.67
2018-05-10T03:05:11.227Z,26.37
2018-05-10T03:07:38.702Z,28.20
2018-05-10T03:10:06.194Z,28.27
2018-05-10T03:12:33.659Z,27.80
2018-05-10T03:15:01.147Z,28.77
2018-05-10T03:17:28.848Z,29.20
2018-05-10T03:19:56.336Z,27.17
2018-05-10T03:22:23.806Z,29.75
2018-05-10T03:24:51.293Z,22.43
2018-05-10T03:27:18.811Z,26.00
2018-05-10T03:29:46.300Z,29.27
2018-05-10T03:32:13.761Z,30.57
2018-05-10T03:34:41.253Z,34.03
2018-05-10T03:37:08.728Z,35.67
2018-05-10T03:39:36.214Z,37.70
2018-05-10T03:42:03.710Z,38.10
2018-05-10T03:44:31.205Z,38.80
2018-05-10T03:46:58.667Z,40.97
2018-05-10T03:49:26.167Z,40.37
2018-05-10T03:51:53.637Z,41.53
2018-05-10T03:54:21.122Z,37.47
2018-05-10T03:56:48.585Z,37.27
2018-05-10T03:59:16.079Z,37.60
2018-05-10T04:01:43.545Z,38.17
2018-05-10T04:04:26.629Z,36.37
2018-05-10T04:07:05.878Z,33.37
2018-05-10T04:12:34.070Z,28.97
2018-05-10T04:15:01.578Z,28.33
2018-05-10T04:17:29.055Z,27.97
2018-05-10T04:19:56.555Z,26.17
2018-05-10T04:22:24.023Z,25.00
2018-05-10T04:24:51.488Z,24.73
2018-05-10T04:27:19.010Z,23.80
2018-05-10T04:29:46.473Z,22.57
2018-05-10T04:32:13.962Z,23.27
2018-05-10T04:34:41.430Z,23.23
2018-05-10T04:37:08.918Z,23.67
2018-05-10T04:39:36.373Z,24.60
2018-05-10T04:42:03.867Z,24.13
2018-05-10T04:44:31.335Z,21.70
2018-05-10T04:46:58.894Z,23.93
2018-05-10T04:49:26.341Z,23.33
2018-05-10T04:51:53.823Z,25.10
2018-05-10T04:54:21.282Z,24.80
2018-05-10T04:56:48.770Z,24.53
2018-05-10T04:59:16.237Z,26.57
2018-05-10T05:01:43.713Z,24.67
2018-05-10T05:04:11.183Z,25.37
2018-05-10T05:06:39.590Z,26.20
2018-05-10T05:09:07.119Z,28.33
2018-05-10T05:11:34.545Z,28.80
2018-05-10T05:14:02.018Z,28.33
2018-05-10T05:16:29.513Z,29.27
2018-05-10T05:18:56.984Z,29.27
2018-05-10T05:21:24.469Z,28.90
2018-05-10T05:23:51.957Z,28.43
2018-05-10T05:26:19.422Z,28.93
2018-05-10T05:28:46.913Z,28.10
2018-05-10T05:31:14.387Z,28.83
2018-05-10T05:33:41.885Z,29.53
2018-05-10T05:36:09.351Z,31.43
2018-05-10T05:38:36.833Z,31.30
2018-05-10T05:41:04.383Z,31.33
2018-05-10T05:43:31.908Z,29.87
2018-05-10T05:45:59.278Z,26.83
2018-05-10T05:48:26.763Z,27.03
2018-05-10T05:50:54.235Z,26.63
2018-05-10T05:53:21.735Z,25.83
2018-05-10T05:55:49.198Z,24.03
2018-05-10T05:58:16.688Z,26.57
2018-05-10T06:00:44.163Z,25.53
2018-05-10T06:03:11.662Z,25.27
2018-05-10T06:05:39.125Z,24.47
2018-05-10T06:08:06.618Z,25.27
2018-05-10T06:10:34.094Z,25.63
2018-05-10T06:13:01.590Z,25.20
2018-05-10T06:15:29.100Z,24.77
2018-05-10T06:17:56.575Z,24.97
2018-05-10T06:20:24.038Z,24.40
2018-05-10T06:22:51.522Z,24.90
2018-05-10T06:25:18.981Z,25.57
2018-05-10T06:27:46.469Z,25.03
2018-05-10T06:30:14.327Z,25.33
2018-05-10T06:32:41.822Z,26.27
2018-05-10T06:35:09.388Z,26.10
2018-05-10T06:37:36.883Z,24.43
2018-05-10T06:40:04.370Z,25.07
2018-05-10T06:42:31.873Z,24.73
2018-05-10T06:44:59.337Z,25.00
2018-05-10T06:47:26.806Z,26.13
2018-05-10T06:49:54.285Z,27.83
2018-05-10T06:52:21.745Z,28.07
2018-05-10T06:54:49.227Z,25.00
2018-05-10T06:57:16.716Z,24.33
2018-05-10T06:59:44.276Z,21.63
2018-05-10T07:02:11.777Z,21.50
2018-05-10T07:04:39.312Z,23.30
2018-05-10T07:07:06.839Z,22.93
2018-05-10T07:09:34.511Z,24.20
2018-05-10T07:12:01.857Z,21.90
2018-05-10T07:14:29.396Z,22.27
2018-05-10T07:16:56.890Z,23.07
2018-05-10T07:19:24.466Z,23.13
2018-05-10T07:21:51.998Z,24.27
2018-05-10T07:24:19.560Z,24.83
2018-05-10T07:26:47.058Z,26.50
2018-05-10T07:29:14.615Z,25.13
2018-05-10T07:31:42.102Z,24.40
2018-05-10T07:34:09.604Z,24.67
2018-05-10T07:36:37.086Z,21.33
2018-05-10T07:39:04.566Z,24.53
2018-05-10T07:41:32.039Z,24.03
2018-05-10T07:43:59.535Z,26.40
2018-05-10T07:46:27.002Z,23.80
2018-05-10T07:48:54.482Z,23.37
2018-05-10T07:51:21.953Z,23.30
2018-05-10T07:53:49.443Z,23.80
2018-05-10T07:56:17.178Z,23.57
2018-05-10T07:58:44.730Z,23.47
2018-05-10T08:01:12.242Z,22.83
2018-05-10T08:03:39.754Z,24.90
2018-05-10T08:06:07.261Z,23.87
2018-05-10T08:08:34.778Z,24.53
2018-05-10T08:11:02.301Z,24.50
2018-05-10T08:13:29.806Z,23.37
2018-05-10T08:15:57.289Z,25.17
2018-05-10T08:18:24.754Z,24.97
2018-05-10T08:20:52.254Z,24.93
2018-05-10T08:23:19.726Z,25.17
2018-05-10T08:25:47.209Z,24.07
2018-05-10T08:28:14.685Z,23.13
2018-05-10T08:30:42.182Z,21.40
2018-05-10T08:33:09.647Z,18.10
2018-05-10T08:35:37.145Z,18.63
2018-05-10T08:38:04.627Z,19.23
2018-05-10T08:40:32.114Z,21.13
2018-05-10T08:42:59.577Z,18.10
2018-05-10T08:45:27.060Z,16.10
2018-05-10T08:47:54.531Z,15.70
2018-05-10T08:50:22.012Z,14.47
2018-05-10T08:52:49.473Z,14.00
2018-05-10T08:55:16.994Z,10.77
2018-05-10T08:57:44.465Z,9.10
2018-05-10T09:00:11.970Z,9.10
2018-05-10T09:02:39.432Z,9.47
2018-05-10T09:05:06.914Z,11.37
2018-05-10T09:07:34.381Z,10.77
2018-05-10T09:10:02.055Z,10.67
2018-05-10T09:12:29.358Z,9.50
2018-05-10T09:14:56.850Z,9.70
2018-05-10T09:17:24.314Z,7.83
2018-05-10T09:19:51.798Z,8.40
2018-05-10T09:22:19.258Z,7.30
2018-05-10T09:24:46.739Z,6.70
2018-05-10T09:27:14.199Z,7.43
2018-05-10T09:29:41.682Z,7.10
2018-05-10T09:32:09.133Z,5.13
2018-05-10T09:34:36.599Z,5.67
2018-05-10T09:37:04.096Z,5.10
2018-05-10T09:39:31.578Z,4.93
2018-05-10T09:41:59.066Z,4.90
2018-05-10T09:44:26.545Z,3.90
2018-05-10T09:46:54.032Z,4.83
2018-05-10T09:49:21.502Z,4.63
2018-05-10T09:51:48.986Z,4.40
2018-05-10T09:54:16.446Z,4.23
2018-05-10T09:56:43.926Z,4.13
2018-05-10T09:59:11.382Z,3.40
2018-05-10T10:01:38.865Z,4.13
2018-05-10T10:04:06.324Z,4.57
2018-05-10T10:06:33.790Z,4.47
2018-05-10T10:09:01.250Z,4.50
2018-05-10T10:11:28.744Z,5.27
2018-05-10T10:13:56.201Z,4.63
2018-05-10T10:16:23.679Z,4.93
2018-05-10T10:18:51.139Z,4.30
2018-05-10T10:21:18.627Z,4.40
2018-05-10T10:23:46.082Z,4.33
2018-05-10T10:26:13.575Z,3.87
2018-05-10T10:28:41.038Z,4.27
2018-05-10T10:31:08.515Z,3.60
2018-05-10T10:33:35.973Z,3.53
2018-05-10T10:36:03.454Z,3.80
2018-05-10T10:38:30.910Z,4.07
2018-05-10T10:40:58.394Z,4.17
2018-05-10T10:43:25.850Z,3.90
2018-05-10T10:45:53.326Z,4.10
2018-05-10T10:48:20.789Z,4.70
2018-05-10T10:50:48.266Z,4.60
2018-05-10T10:53:15.770Z,5.40
2018-05-10T10:55:43.258Z,5.03
2018-05-10T10:58:10.715Z,5.57
2018-05-10T11:00:38.179Z,5.30
2018-05-10T11:03:05.649Z,5.47
2018-05-10T11:05:33.133Z,6.10
2018-05-10T11:08:00.610Z,5.53
2018-05-10T11:10:28.074Z,5.93
2018-05-10T11:12:55.557Z,6.90
2018-05-10T11:15:23.108Z,6.80
2018-05-10T11:17:50.586Z,7.00
2018-05-10T11:20:18.052Z,8.23
2018-05-10T11:22:45.535Z,8.30
2018-05-10T11:25:13.034Z,8.17
2018-05-10T11:27:40.525Z,8.87
2018-05-10T11:30:07.982Z,9.43
2018-05-10T11:32:35.473Z,11.03
2018-05-10T11:35:02.933Z,10.73
2018-05-10T11:37:30.422Z,11.47
2018-05-10T11:39:57.890Z,10.77
2018-05-10T11:42:25.374Z,10.60
2018-05-10T11:44:52.837Z,12.27
2018-05-10T11:47:20.317Z,10.83
2018-05-10T11:49:47.786Z,11.90
2018-05-10T11:52:15.271Z,11.57
2018-05-10T11:54:42.745Z,11.27
2018-05-10T11:57:10.730Z,11.80
2018-05-10T11:59:38.190Z,12.03
2018-05-10T12:02:05.674Z,11.53
2018-05-10T12:04:33.152Z,11.23
2018-05-10T12:07:00.647Z,10.77
2018-05-10T12:09:28.115Z,11.63
2018-05-10T12:11:55.593Z,11.23
2018-05-10T12:14:23.053Z,11.37
2018-05-10T12:16:50.541Z,11.57
2018-05-10T12:19:18.075Z,11.23
2018-05-10T12:21:45.512Z,11.33
2018-05-10T12:24:12.974Z,11.57
2018-05-10T12:26:40.437Z,11.63
2018-05-10T12:29:07.927Z,11.23
2018-05-10T12:31:35.390Z,12.47
2018-05-10T12:34:02.874Z,12.93
2018-05-10T12:36:30.350Z,12.00
2018-05-10T12:38:57.829Z,11.47
2018-05-10T12:41:25.289Z,11.33
2018-05-10T12:43:52.774Z,12.13
2018-05-10T12:46:20.233Z,13.03
2018-05-10T12:48:47.769Z,11.57
2018-05-10T12:51:15.433Z,13.17
2018-05-10T12:53:42.926Z,13.23
2018-05-10T12:56:10.469Z,13.43
2018-05-10T12:58:37.890Z,13.37
2018-05-10T13:01:05.353Z,12.63
2018-05-10T13:03:32.894Z,13.60
2018-05-10T13:06:00.368Z,13.00
2018-05-10T13:08:27.913Z,13.93
2018-05-10T13:10:55.391Z,13.80
2018-05-10T13:13:23.940Z,13.80
2018-05-10T13:15:51.373Z,15.17
2018-05-10T13:18:18.919Z,14.73
2018-05-10T13:20:46.386Z,13.90
2018-05-10T13:23:13.875Z,14.43
2018-05-10T13:25:41.341Z,13.60
2018-05-10T13:28:08.821Z,13.63
2018-05-10T13:30:36.277Z,14.27
2018-05-10T13:33:03.766Z,13.97
2018-05-10T13:35:31.238Z,13.77
2018-05-10T13:37:58.727Z,14.00
2018-05-10T13:40:26.194Z,13.57
2018-05-10T13:42:53.662Z,13.30
2018-05-10T13:45:21.142Z,12.37
2018-05-10T13:47:48.606Z,13.57
2018-05-10T13:50:16.089Z,13.63
2018-05-10T13:52:43.572Z,13.13
2018-05-10T13:55:11.055Z,14.00
2018-05-10T13:57:38.527Z,13.03
2018-05-10T14:00:06.010Z,13.67
2018-05-10T14:02:33.482Z,13.30
2018-05-10T14:05:00.974Z,14.63
2018-05-10T14:07:28.446Z,13.43
2018-05-10T14:09:55.927Z,13.57
2018-05-10T14:12:23.393Z,13.03
2018-05-10T14:14:50.878Z,13.13
2018-05-10T14:17:18.351Z,12.23
2018-05-10T14:19:45.838Z,12.20
2018-05-10T14:22:13.307Z,11.73
2018-05-10T14:24:40.793Z,11.33
2018-05-10T14:27:08.262Z,11.57
2018-05-10T14:29:35.751Z,11.23
2018-05-10T14:32:03.223Z,12.53
2018-05-10T14:34:30.702Z,11.13
2018-05-10T14:36:58.162Z,12.10
2018-05-10T14:39:25.729Z,10.57
2018-05-10T14:41:53.124Z,11.40
2018-05-10T14:44:20.614Z,10.67
2018-05-10T14:46:48.090Z,11.00
2018-05-10T14:49:15.584Z,10.43
2018-05-10T14:51:43.045Z,10.43
2018-05-10T14:54:10.572Z,10.67
2018-05-10T14:56:38.018Z,10.53
2018-05-10T14:59:05.502Z,11.07
2018-05-10T15:01:32.977Z,10.97
2018-05-10T15:04:00.461Z,10.73
2018-05-10T15:06:28.322Z,10.10
2018-05-10T15:08:55.777Z,8.57
2018-05-10T15:11:23.261Z,8.40
2018-05-10T15:13:50.737Z,7.13
2018-05-10T15:16:18.214Z,5.77
2018-05-10T15:18:45.678Z,5.50
2018-05-10T15:21:13.165Z,5.90
2018-05-10T15:23:40.685Z,5.93
2018-05-10T15:26:08.129Z,5.60
2018-05-10T15:28:35.590Z,6.10
2018-05-10T15:31:03.074Z,5.77
2018-05-10T15:33:30.534Z,5.27
2018-05-10T15:35:58.022Z,5.93
2018-05-10T15:38:25.495Z,4.97
2018-05-10T15:40:52.985Z,5.63
2018-05-10T15:43:20.453Z,5.60
2018-05-10T15:45:47.938Z,5.93
2018-05-10T15:48:15.404Z,6.37
2018-05-10T15:50:42.891Z,6.07
2018-05-10T15:53:10.353Z,6.03
2018-05-10T15:55:37.838Z,6.27
2018-05-10T15:58:05.301Z,6.90
2018-05-10T16:00:32.778Z,7.33
2018-05-10T16:03:00.249Z,6.93
2018-05-10T16:05:27.734Z,7.00
2018-05-10T16:07:55.212Z,7.07
2018-05-10T16:10:22.697Z,6.73
2018-05-10T16:12:50.172Z,7.03
2018-05-10T16:15:17.662Z,6.83
2018-05-10T16:17:45.125Z,7.37
2018-05-10T16:20:12.606Z,7.30
2018-05-10T16:22:40.106Z,7.10
2018-05-10T16:25:07.596Z,6.30
2018-05-10T16:27:35.067Z,5.93
2018-05-10T16:30:02.570Z,6.33
2018-05-10T16:32:30.964Z,6.70
2018-05-10T16:34:58.435Z,6.57
2018-05-10T16:37:25.966Z,6.53
2018-05-10T16:39:53.426Z,6.20
2018-05-10T16:42:20.914Z,6.57
2018-05-10T16:44:48.374Z,6.33
2018-05-10T16:47:15.858Z,5.93
2018-05-10T16:49:43.327Z,5.73
2018-05-10T16:52:10.810Z,6.33
2018-05-10T16:54:38.276Z,6.10
2018-05-10T16:57:05.770Z,6.30
2018-05-10T16:59:33.238Z,5.87
2018-05-10T17:02:00.732Z,6.33
2018-05-10T17:04:28.198Z,6.20
2018-05-10T17:06:55.685Z,6.63
2018-05-10T17:09:23.159Z,5.90
2018-05-10T17:11:50.641Z,6.53
2018-05-10T17:14:18.109Z,6.17
2018-05-10T17:16:46.082Z,6.07
2018-05-10T17:19:13.553Z,5.93
2018-05-10T17:21:41.103Z,5.90
2018-05-10T17:24:08.562Z,6.20
2018-05-10T17:26:36.047Z,6.27
2018-05-10T17:29:03.497Z,5.90
2018-05-10T17:31:30.989Z,5.63
2018-05-10T17:33:58.454Z,5.80
2018-05-10T17:36:25.942Z,6.20
2018-05-10T17:38:53.404Z,5.93
2018-05-10T17:41:20.885Z,5.70
2018-05-10T17:43:48.356Z,5.60
2018-05-10T17:46:15.941Z,6.40
2018-05-10T17:48:43.427Z,6.60
2018-05-10T17:51:10.913Z,6.50
2018-05-10T17:53:38.387Z,6.83
2018-05-10T17:56:05.882Z,6.53
2018-05-10T17:58:33.349Z,6.07
2018-05-10T18:01:00.811Z,6.03
2018-05-10T18:03:28.306Z,6.20
2018-05-10T18:05:55.782Z,6.60
2018-05-10T18:08:23.261Z,6.07
2018-05-10T18:10:50.726Z,6.33
2018-05-10T18:13:18.238Z,5.90
2018-05-10T18:15:45.708Z,6.20
2018-05-10T18:18:13.198Z,6.33
2018-05-10T18:20:40.661Z,5.70
2018-05-10T18:23:08.146Z,6.30
2018-05-10T18:25:35.613Z,6.20
2018-05-10T18:28:03.110Z,6.37
2018-05-10T18:30:30.574Z,6.27
2018-05-10T18:32:58.038Z,6.30
2018-05-10T18:35:25.539Z,6.20
2018-05-10T18:37:53.001Z,5.70
2018-05-10T18:40:20.495Z,6.07
2018-05-10T18:42:47.972Z,6.13
2018-05-10T18:45:15.466Z,6.03
2018-05-10T18:47:42.930Z,5.73
2018-05-10T18:50:10.417Z,6.60
2018-05-10T18:52:37.875Z,6.10
2018-05-10T18:55:05.400Z,6.60
2018-05-10T18:57:32.868Z,6.13
2018-05-10T19:00:00.365Z,5.80
2018-05-10T19:02:27.833Z,6.47
2018-05-10T19:04:55.321Z,6.20
2018-05-10T19:07:22.848Z,6.17
2018-05-10T19:09:50.285Z,6.43
2018-05-10T19:12:17.794Z,6.17
2018-05-10T19:14:45.290Z,6.47
2018-05-10T19:17:12.742Z,6.10
2018-05-10T19:19:40.249Z,6.30
2018-05-10T19:22:07.707Z,6.13
2018-05-10T19:24:35.198Z,6.13
2018-05-10T19:27:02.675Z,6.33
2018-05-10T19:29:30.252Z,6.33
2018-05-10T19:31:57.710Z,6.23
2018-05-10T19:34:25.190Z,6.30
2018-05-10T19:36:52.662Z,6.40
2018-05-10T19:39:20.119Z,6.53
2018-05-10T19:41:47.603Z,6.47
2018-05-10T19:44:15.065Z,7.17
2018-05-10T19:46:42.571Z,6.97
2018-05-10T19:49:10.040Z,7.43
2018-05-10T19:51:37.525Z,6.70
2018-05-10T19:54:04.994Z,7.53
2018-05-10T19:56:32.483Z,7.30
2018-05-10T19:58:59.953Z,6.50
2018-05-10T20:01:27.443Z,6.83
2018-05-10T20:03:54.914Z,7.13
2018-05-10T20:06:22.398Z,7.17
2018-05-10T20:08:49.862Z,7.23
2018-05-10T20:11:17.346Z,7.07
2018-05-10T20:13:44.856Z,7.27
2018-05-10T20:16:12.310Z,6.00
2018-05-10T20:18:39.771Z,5.80
2018-05-10T20:21:07.262Z,5.30
2018-05-10T20:23:34.735Z,5.47
2018-05-10T20:26:02.216Z,5.37
2018-05-10T20:28:29.783Z,4.90
2018-05-10T20:30:57.194Z,5.57
2018-05-10T20:33:24.650Z,4.70
2018-05-10T20:35:52.138Z,4.73
2018-05-10T20:38:19.594Z,5.20
2018-05-10T20:40:47.079Z,5.37
2018-05-10T20:43:14.632Z,4.87
2018-05-10T20:45:42.037Z,4.87
2018-05-10T20:48:09.498Z,5.10
2018-05-10T20:50:36.977Z,4.20
2018-05-10T20:53:04.458Z,4.33
2018-05-10T20:55:31.957Z,4.27
2018-05-10T20:57:59.413Z,4.13
2018-05-10T21:00:26.870Z,4.20
2018-05-10T21:02:54.354Z,4.50
2018-05-10T21:05:21.822Z,4.50
2018-05-10T21:07:49.303Z,4.10
2018-05-10T21:10:16.758Z,4.70
2018-05-10T21:12:44.247Z,3.73
2018-05-10T21:15:11.706Z,4.00
2018-05-10T21:17:39.192Z,4.60
2018-05-10T21:20:06.746Z,4.20
2018-05-10T21:22:34.166Z,4.27
2018-05-10T21:25:01.632Z,4.53
2018-05-10T21:27:29.112Z,4.30
2018-05-10T21:29:56.577Z,4.93
2018-05-10T21:32:24.058Z,4.67
2018-05-10T21:34:51.518Z,4.63
2018-05-10T21:37:19.005Z,4.87
2018-05-10T21:39:46.520Z,4.90
2018-05-10T21:42:14.010Z,5.00
2018-05-10T21:44:41.489Z,4.43
2018-05-10T21:47:08.978Z,4.77
2018-05-10T21:49:48.227Z,5.00
2018-05-10T21:52:15.779Z,4.97
2018-05-10T21:54:44.170Z,4.87
2018-05-10T21:57:11.650Z,5.83
2018-05-10T21:59:39.125Z,5.70
2018-05-10T22:02:06.610Z,5.53
2018-05-10T22:04:34.078Z,5.70
2018-05-10T22:07:01.575Z,6.40
2018-05-10T22:09:29.057Z,6.07
2018-05-10T22:11:56.530Z,5.50
2018-05-10T22:14:23.998Z,6.37
2018-05-10T22:16:51.477Z,6.23
2018-05-10T22:19:18.946Z,6.20
2018-05-10T22:21:46.425Z,5.97
2018-05-10T22:24:13.893Z,6.03
2018-05-10T22:26:41.353Z,6.50
2018-05-10T22:29:08.830Z,6.97
2018-05-10T22:31:36.290Z,6.33
2018-05-10T22:34:03.820Z,7.53
2018-05-10T22:36:31.282Z,6.83
2018-05-10T22:38:58.899Z,7.10
2018-05-10T22:41:26.370Z,7.17
2018-05-10T22:43:53.863Z,6.50
2018-05-10T22:49:19.380Z,7.70
2018-05-10T22:51:46.847Z,7.33
2018-05-10T22:54:14.334Z,8.40
2018-05-10T22:56:41.797Z,7.70
2018-05-10T22:59:09.275Z,8.10
2018-05-10T23:01:36.752Z,7.93
2018-05-10T23:04:04.243Z,8.20
2018-05-10T23:06:31.693Z,7.80
2018-05-10T23:08:59.174Z,8.23
2018-05-10T23:11:26.634Z,8.70
2018-05-10T23:13:54.118Z,8.47
2018-05-10T23:16:21.586Z,8.60
2018-05-10T23:18:49.076Z,9.27
2018-05-10T23:21:16.529Z,8.87
2018-05-10T23:23:44.010Z,8.10
2018-05-10T23:26:11.469Z,9.23
2018-05-10T23:28:38.946Z,8.30
2018-05-10T23:31:06.416Z,8.33
2018-05-10T23:33:33.905Z,8.43
2018-05-10T23:36:01.373Z,8.07
2018-05-10T23:38:28.853Z,8.73
2018-05-10T23:40:56.311Z,8.50
2018-05-10T23:43:23.793Z,9.00
2018-05-10T23:45:51.255Z,8.67
2018-05-10T23:48:27.259Z,9.43
2018-05-10T23:50:54.718Z,8.43
2018-05-10T23:53:22.203Z,9.13
2018-05-10T23:55:49.668Z,9.00
2018-05-10T23:58:17.174Z,8.53
